Time;durP1;ratioP1;P1;durP2;ratioP2;P2;SDS_P1;SDS_P2;PMS_P1;PMS_P2;Temp;Humidity;BMP_temperature;BMP_pressure;BME280_temperature;BME280_humidity;BME280_pressure;Samples;Min_cycle;Max_cycle;Signal;HPM_P1;HPM_P2
2023/12/13 00:00:31;;;;;;;111.00;35.53;;;8.20;99.90;;;;;;7369357;19;20014;-71
2023/12/13 00:02:59;;;;;;;112.97;37.72;;;8.20;99.90;;;;;;7373004;19;20337;-71
2023/12/13 00:05:25;;;;;;;195.05;41.47;;;8.20;99.90;;;;;;7369681;19;20010;-70
2023/12/13 00:07:52;;;;;;;166.63;42.58;;;8.20;99.90;;;;;;7372352;19;20022;-71
2023/12/13 00:10:18;;;;;;;134.80;39.22;;;8.20;99.90;;;;;;7369863;19;20023;-71
2023/12/13 00:12:44;;;;;;;136.32;37.30;;;8.20;99.90;;;;;;7369650;19;20018;-71
2023/12/13 00:15:14;;;;;;;119.28;37.95;;;8.20;99.90;;;;;;7370279;19;20018;-65
2023/12/13 00:17:41;;;;;;;182.93;43.40;;;8.20;99.90;;;;;;7370534;19;20029;-65
2023/12/13 00:20:08;;;;;;;170.57;41.35;;;8.30;99.90;;;;;;7370967;19;20018;-65
2023/12/13 00:22:35;;;;;;;247.13;48.25;;;8.20;99.90;;;;;;7368835;19;20018;-65
2023/12/13 00:25:01;;;;;;;175.20;42.47;;;8.20;99.90;;;;;;7370863;19;20014;-71
2023/12/13 00:27:27;;;;;;;143.98;39.67;;;8.20;99.90;;;;;;7370832;19;20018;-65
2023/12/13 00:29:56;;;;;;;178.32;42.65;;;8.30;99.90;;;;;;7372481;19;20493;-65
2023/12/13 00:32:23;;;;;;;158.23;43.33;;;8.30;99.90;;;;;;7371065;19;20399;-65
2023/12/13 00:34:49;;;;;;;289.02;49.35;;;8.20;99.90;;;;;;7374490;19;20043;-65
2023/12/13 00:37:16;;;;;;;176.52;45.95;;;8.20;99.90;;;;;;7371288;19;20524;-65
2023/12/13 00:39:42;;;;;;;210.32;49.95;;;8.20;99.90;;;;;;7370930;19;20022;-65
2023/12/13 00:42:08;;;;;;;249.80;50.75;;;8.20;99.90;;;;;;7371373;19;20818;-68
2023/12/13 00:44:35;;;;;;;189.23;48.83;;;8.20;99.90;;;;;;7371591;19;20022;-65
2023/12/13 00:47:01;;;;;;;398.70;62.97;;;8.10;99.90;;;;;;7370907;19;20365;-65
2023/12/13 00:49:27;;;;;;;252.55;55.33;;;8.20;99.90;;;;;;7372442;19;20025;-65
2023/12/13 00:51:53;;;;;;;219.85;50.03;;;8.10;99.90;;;;;;7371904;19;20050;-65
2023/12/13 00:54:20;;;;;;;437.95;65.80;;;8.10;99.90;;;;;;7370475;19;20023;-65
2023/12/13 00:56:46;;;;;;;253.25;54.90;;;8.00;99.90;;;;;;7370407;19;20466;-65
2023/12/13 00:59:12;;;;;;;333.73;60.40;;;8.00;99.90;;;;;;7371376;19;20410;-65
2023/12/13 01:01:43;;;;;;;209.27;53.53;;;8.00;99.90;;;;;;7371328;19;20099;-65
2023/12/13 01:04:11;;;;;;;;;;;8.00;99.90;;;;;;7372056;19;20018;-65
2023/12/13 01:06:38;;;;;;;231.57;55.65;;;7.90;99.90;;;;;;7367223;19;20343;-65
2023/12/13 01:09:05;;;;;;;244.45;56.88;;;8.00;99.90;;;;;;7369277;19;20857;-66
2023/12/13 01:11:31;;;;;;;190.73;51.58;;;7.90;99.90;;;;;;7367518;19;20026;-65
2023/12/13 01:13:58;;;;;;;127.60;45.72;;;7.90;99.90;;;;;;7372492;19;20017;-65
2023/12/13 01:16:24;;;;;;;148.10;48.85;;;8.00;99.90;;;;;;7369374;19;20023;-65
2023/12/13 01:18:50;;;;;;;147.43;48.50;;;8.00;99.90;;;;;;7366301;19;20096;-65
2023/12/13 01:21:19;;;;;;;121.65;46.58;;;8.00;99.90;;;;;;7371973;19;20026;-71
2023/12/13 01:24:06;;;;;;;153.25;47.72;;;8.10;99.90;;;;;;7372009;19;20014;-72
2023/12/13 01:26:32;;;;;;;114.65;44.70;;;8.00;99.90;;;;;;7373625;19;20030;-71
2023/12/13 01:28:59;;;;;;;122.32;46.25;;;8.00;99.90;;;;;;7374810;19;20029;-72
2023/12/13 01:31:25;;;;;;;104.28;43.38;;;8.00;99.90;;;;;;7369897;19;20046;-72
2023/12/13 01:33:51;;;;;;;98.75;38.88;;;8.10;99.90;;;;;;7378042;19;20030;-72
2023/12/13 01:36:17;;;;;;;101.18;37.13;;;8.10;99.90;;;;;;7376203;19;20019;-72
2023/12/13 01:38:43;;;;;;;93.50;37.95;;;8.00;99.90;;;;;;7375413;19;20018;-72
2023/12/13 01:41:10;;;;;;;78.10;33.35;;;8.00;99.90;;;;;;7376450;19;20471;-72
2023/12/13 01:43:37;;;;;;;77.20;34.28;;;8.10;99.90;;;;;;7383799;19;20018;-72
2023/12/13 01:46:04;;;;;;;87.68;34.88;;;8.10;99.90;;;;;;7376995;19;20025;-71
2023/12/13 01:48:31;;;;;;;84.90;34.20;;;8.10;99.90;;;;;;7377355;19;20022;-65
2023/12/13 01:50:58;;;;;;;83.28;32.50;;;8.00;99.90;;;;;;7365719;19;20552;-65
2023/12/13 01:53:25;;;;;;;87.07;33.45;;;8.10;99.90;;;;;;7375449;19;20500;-65
2023/12/13 01:55:54;;;;;;;76.13;32.20;;;8.10;99.90;;;;;;7375271;19;20025;-65
2023/12/13 01:58:41;;;;;;;66.72;28.52;;;8.00;99.90;;;;;;7371956;19;20025;-65
2023/12/13 02:01:08;;;;;;;72.57;30.42;;;8.10;99.90;;;;;;7370404;19;20614;-65
2023/12/13 02:03:38;;;;;;;59.42;27.65;;;8.10;99.90;;;;;;7374597;19;20106;-65
2023/12/13 02:06:05;;;;;;;57.80;26.17;;;8.10;99.90;;;;;;7370465;19;20113;-66
2023/12/13 02:08:33;;;;;;;67.88;27.42;;;8.10;99.90;;;;;;7373786;19;20018;-65
2023/12/13 02:11:19;;;;;;;69.28;26.63;;;8.00;99.90;;;;;;7372402;19;20477;-71
2023/12/13 02:13:45;;;;;;;64.32;25.63;;;8.00;99.90;;;;;;7375616;19;20021;-71
2023/12/13 02:16:12;;;;;;;54.20;25.23;;;8.10;99.90;;;;;;7373985;19;20359;-71
2023/12/13 02:18:38;;;;;;;59.15;25.58;;;8.10;99.90;;;;;;7370583;19;20422;-71
2023/12/13 02:21:06;;;;;;;63.45;25.17;;;8.00;99.90;;;;;;7369200;19;20018;-64
2023/12/13 02:23:33;;;;;;;66.97;26.20;;;8.10;99.90;;;;;;7365704;19;20022;-65
2023/12/13 02:26:01;;;;;;;56.33;24.20;;;8.00;99.90;;;;;;7372506;19;20022;-65
2023/12/13 02:28:29;;;;;;;66.13;26.40;;;8.10;99.90;;;;;;7372971;19;20107;-65
2023/12/13 02:30:57;;;;;;;58.55;25.35;;;8.10;99.90;;;;;;7374607;19;20027;-65
2023/12/13 02:33:28;;;;;;;62.45;25.13;;;8.00;99.90;;;;;;7372182;19;20014;-65
2023/12/13 02:35:57;;;;;;;55.92;24.17;;;8.00;99.90;;;;;;7375027;19;20622;-65
2023/12/13 02:38:23;;;;;;;64.53;26.02;;;8.10;99.90;;;;;;7371766;19;20653;-65
2023/12/13 02:40:49;;;;;;;52.63;25.42;;;8.00;99.90;;;;;;7375484;19;20651;-65
2023/12/13 02:43:16;;;;;;;48.97;21.73;;;8.00;99.90;;;;;;7370024;19;20125;-65
2023/12/13 02:45:42;;;;;;;66.90;26.23;;;8.00;99.90;;;;;;7373447;19;20018;-65
2023/12/13 02:48:08;;;;;;;64.68;25.77;;;8.00;99.90;;;;;;7375466;19;20026;-66
2023/12/13 02:50:36;;;;;;;48.58;23.73;;;7.90;99.90;;;;;;7372930;19;20516;-71
2023/12/13 02:53:04;;;;;;;57.67;24.80;;;8.00;99.90;;;;;;7377483;19;20352;-72
2023/12/13 02:55:30;;;;;;;52.70;24.45;;;8.00;99.90;;;;;;7372204;19;20022;-65
2023/12/13 02:57:56;;;;;;;76.47;27.83;;;8.00;99.90;;;;;;7374811;19;20030;-65
2023/12/13 03:00:23;;;;;;;58.35;24.00;;;7.90;99.90;;;;;;7374767;19;20096;-65
2023/12/13 03:02:49;;;;;;;58.72;25.20;;;8.00;99.90;;;;;;7375442;19;20378;-65
2023/12/13 03:05:15;;;;;;;66.82;25.92;;;7.90;99.90;;;;;;7371846;19;20022;-72
2023/12/13 03:07:42;;;;;;;45.83;22.33;;;8.00;99.90;;;;;;7375147;19;20022;-71
2023/12/13 03:10:09;;;;;;;55.90;25.08;;;7.90;99.90;;;;;;7370420;19;20015;-72
2023/12/13 03:12:55;;;;;;;58.60;24.30;;;8.00;99.90;;;;;;7371924;19;20015;-72
2023/12/13 03:15:26;;;;;;;53.10;23.35;;;8.00;99.90;;;;;;7373454;19;20025;-72
2023/12/13 03:17:52;;;;;;;58.67;24.75;;;8.00;99.90;;;;;;7373092;19;20022;-72
2023/12/13 03:20:18;;;;;;;51.25;23.73;;;7.90;99.90;;;;;;7371198;19;20039;-72
2023/12/13 03:22:44;;;;;;;59.97;25.58;;;8.00;99.90;;;;;;7375764;19;20783;-72
2023/12/13 03:25:10;;;;;;;63.15;24.77;;;8.00;99.90;;;;;;7372292;19;20027;-72
2023/12/13 03:27:42;;;;;;;57.58;25.95;;;8.00;99.90;;;;;;7374894;19;20010;-72
2023/12/13 03:30:09;;;;;;;63.97;25.02;;;8.00;99.90;;;;;;7370242;19;20029;-72
2023/12/13 03:32:36;;;;;;;61.63;25.80;;;8.00;99.90;;;;;;7375007;19;20031;-72
2023/12/13 03:35:02;;;;;;;64.28;26.27;;;8.00;99.90;;;;;;7374464;19;20096;-72
2023/12/13 03:37:36;;;;;;;57.30;25.40;;;8.00;99.90;;;;;;7374126;19;20019;-66
2023/12/13 03:40:03;;;;;;;56.40;25.65;;;8.00;99.90;;;;;;7371183;19;20108;-66
2023/12/13 03:42:29;;;;;;;63.50;25.85;;;8.00;99.90;;;;;;7367709;19;20029;-65
2023/12/13 03:44:56;;;;;;;61.78;26.33;;;8.00;99.90;;;;;;7369384;19;20030;-72
2023/12/13 03:47:22;;;;;;;61.58;26.77;;;8.00;99.90;;;;;;7373055;19;20018;-65
2023/12/13 03:49:49;;;;;;;59.17;26.23;;;8.00;99.90;;;;;;7374475;19;20019;-65
2023/12/13 03:52:15;;;;;;;65.28;28.77;;;8.10;99.90;;;;;;7372296;19;20018;-65
2023/12/13 03:55:01;;;;;;;64.82;28.85;;;8.00;99.90;;;;;;7374661;19;20793;-72
2023/12/13 03:57:27;;;;;;;61.72;26.70;;;8.00;99.90;;;;;;7373925;19;20018;-72
2023/12/13 03:59:54;;;;;;;73.97;29.80;;;8.00;99.90;;;;;;7375091;19;20054;-72
2023/12/13 04:02:20;;;;;;;67.97;29.52;;;8.00;99.90;;;;;;7372413;19;20034;-66
2023/12/13 04:04:46;;;;;;;69.90;30.70;;;8.00;99.90;;;;;;7370220;19;20733;-65
2023/12/13 04:07:13;;;;;;;67.43;31.20;;;8.10;99.90;;;;;;7370286;19;20035;-71
2023/12/13 04:09:40;;;;;;;67.63;31.80;;;8.10;99.90;;;;;;7373125;19;20011;-72
2023/12/13 04:12:06;;;;;;;71.18;31.17;;;8.10;99.90;;;;;;7368224;19;20501;-65
2023/12/13 04:14:32;;;;;;;72.22;32.25;;;8.10;99.90;;;;;;7372647;19;20014;-65
2023/12/13 04:16:58;;;;;;;69.78;31.58;;;8.10;99.90;;;;;;7371863;19;20035;-72
2023/12/13 04:19:44;;;;;;;81.57;33.45;;;8.00;99.90;;;;;;7370025;19;20477;-66
2023/12/13 04:22:10;;;;;;;67.88;32.15;;;8.10;99.90;;;;;;7364058;19;20115;-72
2023/12/13 04:24:37;;;;;;;84.05;33.13;;;8.10;99.90;;;;;;7371054;19;20014;-65
2023/12/13 04:27:03;;;;;;;69.90;33.42;;;8.10;99.90;;;;;;7372241;19;20367;-73
2023/12/13 04:29:30;;;;;;;77.22;32.67;;;8.10;99.90;;;;;;7373138;19;20039;-66
2023/12/13 04:31:57;;;;;;;67.55;32.58;;;8.00;99.90;;;;;;7368395;19;20018;-66
2023/12/13 04:34:24;;;;;;;82.38;33.75;;;8.10;99.90;;;;;;7375057;19;20598;-71
2023/12/13 04:36:50;;;;;;;63.80;31.02;;;8.10;99.90;;;;;;7373756;19;20031;-65
2023/12/13 04:39:16;;;;;;;65.03;30.90;;;8.10;99.90;;;;;;7363838;19;20011;-72
2023/12/13 04:41:43;;;;;;;71.47;31.85;;;8.10;99.90;;;;;;7370573;19;20766;-72
2023/12/13 04:44:12;;;;;;;65.32;32.35;;;8.10;99.90;;;;;;7380879;19;20011;-73
2023/12/13 04:46:39;;;;;;;61.65;31.08;;;8.20;99.90;;;;;;7381651;19;20418;-73
2023/12/13 04:49:06;;;;;;;78.22;34.17;;;8.10;99.90;;;;;;7382954;19;20810;-73
2023/12/13 04:51:32;;;;;;;68.55;32.28;;;8.00;99.90;;;;;;7381047;19;20011;-73
2023/12/13 04:53:58;;;;;;;66.00;32.92;;;8.10;99.90;;;;;;7382522;19;20035;-73
2023/12/13 04:56:24;;;;;;;70.32;32.60;;;8.10;99.90;;;;;;7381105;19;20022;-73
2023/12/13 04:58:51;;;;;;;84.15;34.70;;;8.10;99.90;;;;;;7384188;19;20370;-73
2023/12/13 05:01:17;;;;;;;73.47;33.75;;;8.00;99.90;;;;;;7381804;19;20018;-73
2023/12/13 05:03:44;;;;;;;73.55;33.38;;;8.00;99.90;;;;;;7383638;19;20077;-73
2023/12/13 05:06:11;;;;;;;68.15;33.92;;;8.00;99.90;;;;;;7382348;19;20018;-72
2023/12/13 05:08:37;;;;;;;74.90;33.63;;;8.00;99.90;;;;;;7369156;19;20585;-66
2023/12/13 05:11:05;;;;;;;82.72;34.38;;;8.00;99.90;;;;;;7377777;19;20011;-65
2023/12/13 05:13:31;;;;;;;73.57;32.17;;;8.00;99.90;;;;;;7369203;19;20019;-65
2023/12/13 05:15:57;;;;;;;76.40;33.65;;;7.90;99.90;;;;;;7367464;19;20628;-66
2023/12/13 05:18:24;;;;;;;87.53;34.30;;;7.90;99.90;;;;;;7371711;19;20620;-65
2023/12/13 05:20:50;;;;;;;64.93;31.48;;;7.90;99.90;;;;;;7373490;19;20082;-65
2023/12/13 05:23:17;;;;;;;75.65;34.83;;;7.80;99.90;;;;;;7370376;19;20105;-66
2023/12/13 05:25:43;;;;;;;67.20;33.28;;;7.90;99.90;;;;;;7369267;19;20121;-66
2023/12/13 05:28:09;;;;;;;74.70;33.28;;;7.80;99.90;;;;;;7374216;19;20029;-66
2023/12/13 05:30:36;;;;;;;93.05;36.40;;;7.80;99.90;;;;;;7383093;19;20600;-65
2023/12/13 05:33:02;;;;;;;84.05;34.55;;;7.90;99.90;;;;;;7372551;19;20735;-66
2023/12/13 05:35:28;;;;;;;76.20;33.92;;;7.80;99.90;;;;;;7369980;19;20134;-66
2023/12/13 05:37:55;;;;;;;87.40;36.35;;;7.80;99.90;;;;;;7371948;19;20010;-65
2023/12/13 05:40:21;;;;;;;89.63;37.35;;;7.80;99.90;;;;;;7373006;19;20093;-66
2023/12/13 05:42:47;;;;;;;83.88;35.03;;;7.80;99.90;;;;;;7374506;19;20021;-66
2023/12/13 05:45:13;;;;;;;99.65;37.17;;;7.80;99.90;;;;;;7375982;19;20094;-66
2023/12/13 05:47:39;;;;;;;93.25;36.70;;;7.80;99.90;;;;;;7376726;19;20036;-66
2023/12/13 05:50:06;;;;;;;87.35;34.35;;;7.70;99.90;;;;;;7375238;19;20822;-66
2023/12/13 05:52:33;;;;;;;85.80;35.10;;;7.80;99.90;;;;;;7391334;19;20014;-73
2023/12/13 05:54:59;;;;;;;90.15;35.60;;;7.90;99.90;;;;;;7395151;19;20018;-73
2023/12/13 05:57:25;;;;;;;101.25;39.03;;;7.90;99.90;;;;;;7392929;19;20366;-66
2023/12/13 05:59:54;;;;;;;80.68;35.20;;;7.80;99.90;;;;;;7389591;19;21001;-73
2023/12/13 06:02:20;;;;;;;83.95;36.28;;;7.80;99.90;;;;;;7392446;19;20390;-73
2023/12/13 06:04:50;;;;;;;99.88;38.67;;;7.90;99.90;;;;;;7388934;19;20014;-72
2023/12/13 06:07:16;;;;;;;87.25;36.63;;;7.90;99.90;;;;;;7393627;19;20060;-74
2023/12/13 06:09:43;;;;;;;90.95;36.90;;;7.90;99.90;;;;;;7371419;19;20015;-65
2023/12/13 06:12:11;;;;;;;88.50;35.88;;;7.90;99.90;;;;;;7372847;19;20045;-66
2023/12/13 06:14:37;;;;;;;86.93;37.28;;;7.90;99.90;;;;;;7370409;19;20018;-65
2023/12/13 06:17:04;;;;;;;85.13;36.35;;;7.90;99.90;;;;;;7374379;19;20110;-66
2023/12/13 06:19:32;;;;;;;98.15;38.13;;;7.90;99.90;;;;;;7370774;19;20132;-66
2023/12/13 06:21:58;;;;;;;89.22;35.95;;;7.90;99.90;;;;;;7374166;19;20038;-66
2023/12/13 06:24:25;;;;;;;89.95;37.30;;;8.00;99.90;;;;;;7370404;19;20022;-66
2023/12/13 06:26:51;;;;;;;92.88;38.92;;;7.90;99.90;;;;;;7371963;19;20019;-66
2023/12/13 06:29:20;;;;;;;69.65;36.00;;;8.00;99.90;;;;;;7371241;19;20007;-62
2023/12/13 06:32:06;;;;;;;91.70;37.13;;;8.00;99.90;;;;;;7378194;19;20063;-66
2023/12/13 06:34:32;;;;;;;109.60;40.10;;;7.90;99.90;;;;;;7378492;19;20022;-67
2023/12/13 06:36:59;;;;;;;118.05;39.80;;;8.00;99.90;;;;;;7379270;19;20026;-65
2023/12/13 06:39:25;;;;;;;105.72;42.25;;;7.90;99.90;;;;;;7375010;19;20023;-67
2023/12/13 06:41:51;;;;;;;85.82;35.88;;;8.00;99.90;;;;;;7378292;19;20024;-66
2023/12/13 06:44:17;;;;;;;91.53;37.20;;;7.90;99.90;;;;;;7379063;19;20358;-66
2023/12/13 06:46:44;;;;;;;101.25;38.42;;;7.90;99.90;;;;;;7379699;19;20017;-69
2023/12/13 06:49:10;;;;;;;98.90;38.95;;;7.90;99.90;;;;;;7382383;19;20483;-68
2023/12/13 06:51:36;;;;;;;83.88;36.40;;;8.00;99.90;;;;;;7377673;19;20018;-68
2023/12/13 06:54:03;;;;;;;75.50;33.88;;;7.90;99.90;;;;;;7380859;19;20031;-68
2023/12/13 06:56:29;;;;;;;85.07;35.97;;;7.90;99.90;;;;;;7376084;19;20074;-65
2023/12/13 06:58:56;;;;;;;95.72;37.70;;;7.90;99.90;;;;;;7379639;19;20019;-66
2023/12/13 07:01:22;;;;;;;85.82;35.10;;;8.00;99.90;;;;;;7375883;19;20022;-66
2023/12/13 07:03:48;;;;;;;84.50;36.22;;;7.90;99.90;;;;;;7377826;19;20016;-68
2023/12/13 07:06:16;;;;;;;90.93;36.78;;;7.90;99.90;;;;;;7376872;19;20884;-66
2023/12/13 07:08:42;;;;;;;85.85;34.10;;;8.00;99.90;;;;;;7377969;19;20028;-64
2023/12/13 07:11:09;;;;;;;86.00;37.53;;;7.90;99.90;;;;;;7375255;19;20014;-65
2023/12/13 07:13:36;;;;;;;84.07;34.65;;;7.90;99.90;;;;;;7369260;19;20039;-64
2023/12/13 07:16:02;;;;;;;90.47;37.17;;;7.90;99.90;;;;;;7371543;19;20151;-64
2023/12/13 07:18:28;;;;;;;94.30;37.92;;;7.90;99.90;;;;;;7374342;19;20668;-68
2023/12/13 07:20:54;;;;;;;82.22;35.22;;;7.90;99.90;;;;;;7376740;19;20465;-68
2023/12/13 07:23:21;;;;;;;92.53;36.47;;;8.00;99.90;;;;;;7375513;19;20014;-68
2023/12/13 07:25:47;;;;;;;91.72;36.75;;;7.90;99.90;;;;;;7372636;19;20813;-68
2023/12/13 07:28:14;;;;;;;90.93;37.35;;;7.90;99.90;;;;;;7375504;19;20589;-62
2023/12/13 07:30:43;;;;;;;91.75;35.40;;;7.90;99.90;;;;;;7371805;19;20014;-62
2023/12/13 07:33:09;;;;;;;109.82;38.28;;;7.90;99.90;;;;;;7371744;19;20031;-60
2023/12/13 07:35:35;;;;;;;103.22;37.85;;;8.00;99.90;;;;;;7370675;19;20093;-62
2023/12/13 07:38:03;;;;;;;92.13;37.22;;;8.00;99.90;;;;;;7370924;19;20021;-62
2023/12/13 07:40:30;;;;;;;91.18;36.90;;;8.00;99.90;;;;;;7369563;19;20669;-61
2023/12/13 07:42:56;;;;;;;97.57;37.33;;;7.90;99.90;;;;;;7371427;19;20018;-62
2023/12/13 07:45:22;;;;;;;97.72;37.25;;;8.00;99.90;;;;;;7370870;19;20086;-68
2023/12/13 07:47:49;;;;;;;102.68;37.20;;;8.00;99.90;;;;;;7378109;19;20049;-68
2023/12/13 07:50:16;;;;;;;114.00;38.78;;;7.90;99.90;;;;;;7377896;19;20344;-68
2023/12/13 07:52:42;;;;;;;98.60;38.50;;;8.00;99.90;;;;;;7378118;19;20025;-68
2023/12/13 07:55:08;;;;;;;104.05;38.70;;;8.10;99.90;;;;;;7380596;19;20100;-67
2023/12/13 07:57:34;;;;;;;106.78;38.03;;;8.00;99.90;;;;;;7380422;19;20014;-68
2023/12/13 08:00:01;;;;;;;94.00;36.60;;;8.00;99.90;;;;;;7380214;19;20014;-66
2023/12/13 08:02:27;;;;;;;98.65;38.45;;;8.00;99.90;;;;;;7383135;19;20010;-66
2023/12/13 08:04:53;;;;;;;92.90;37.35;;;8.10;99.90;;;;;;7377512;19;20043;-66
2023/12/13 08:07:21;;;;;;;99.63;38.13;;;8.00;99.90;;;;;;7381608;19;20485;-66
2023/12/13 08:09:47;;;;;;;105.88;38.20;;;8.00;99.90;;;;;;7378760;19;20015;-66
2023/12/13 08:12:13;;;;;;;88.55;37.42;;;8.10;99.90;;;;;;7374334;19;20018;-61
2023/12/13 08:14:41;;;;;;;93.63;36.72;;;8.10;99.90;;;;;;7370765;19;20052;-62
2023/12/13 08:17:09;;;;;;;89.72;36.42;;;8.10;99.90;;;;;;7381635;19;20043;-66
2023/12/13 08:19:36;;;;;;;104.18;38.25;;;8.10;99.90;;;;;;7378514;19;20006;-66
2023/12/13 08:22:03;;;;;;;103.65;36.97;;;8.10;99.90;;;;;;7379422;19;20470;-66
2023/12/13 08:24:30;;;;;;;91.85;35.85;;;8.10;99.90;;;;;;7371269;19;20050;-62
2023/12/13 08:26:56;;;;;;;93.78;36.08;;;8.20;99.90;;;;;;7372732;19;20048;-61
2023/12/13 08:29:22;;;;;;;87.10;36.20;;;8.20;99.90;;;;;;7371968;19;20034;-61
2023/12/13 08:31:48;;;;;;;79.90;34.75;;;8.10;99.90;;;;;;7370795;19;20823;-61
2023/12/13 08:34:15;;;;;;;100.05;37.05;;;8.10;99.90;;;;;;7373770;19;20086;-61
2023/12/13 08:36:42;;;;;;;97.75;37.47;;;8.20;99.90;;;;;;7369716;19;20123;-61
2023/12/13 08:39:14;;;;;;;100.72;37.38;;;8.20;99.90;;;;;;7371037;19;20039;-61
2023/12/13 08:41:40;;;;;;;104.60;38.10;;;8.30;99.90;;;;;;7370737;19;20011;-62
2023/12/13 08:44:06;;;;;;;91.72;36.00;;;8.20;99.90;;;;;;7371614;19;20506;-61
2023/12/13 08:46:32;;;;;;;94.22;37.53;;;8.20;99.90;;;;;;7364417;19;20021;-61
2023/12/13 08:48:58;;;;;;;86.18;35.38;;;8.30;99.90;;;;;;7371800;19;20098;-61
2023/12/13 08:51:25;;;;;;;75.97;33.67;;;8.20;99.90;;;;;;7374360;19;20021;-63
2023/12/13 08:53:54;;;;;;;93.03;36.40;;;8.40;99.90;;;;;;7377511;19;20491;-62
2023/12/13 08:56:21;;;;;;;73.68;32.25;;;8.30;99.90;;;;;;7375238;19;20049;-61
2023/12/13 08:58:47;;;;;;;74.25;32.63;;;8.20;99.90;;;;;;7377094;19;20762;-62
2023/12/13 09:01:14;;;;;;;84.80;35.53;;;8.40;99.90;;;;;;7377992;19;20014;-61
2023/12/13 09:03:40;;;;;;;77.78;34.83;;;8.40;99.90;;;;;;7379824;19;20022;-60
2023/12/13 09:06:07;;;;;;;86.47;37.20;;;8.30;99.90;;;;;;7375877;19;20070;-61
2023/12/13 09:08:33;;;;;;;85.53;35.60;;;8.40;99.90;;;;;;7380668;19;20023;-62
2023/12/13 09:11:02;;;;;;;77.40;34.67;;;8.40;99.90;;;;;;7379709;19;20022;-62
2023/12/13 09:13:29;;;;;;;76.03;34.75;;;8.40;99.90;;;;;;7374907;19;20030;-61
2023/12/13 09:15:56;;;;;;;88.45;33.40;;;8.40;99.90;;;;;;7376560;19;20019;-62
2023/12/13 09:18:46;;;;;;;78.90;33.45;;;8.50;99.90;;;;;;7375616;19;20766;-61
2023/12/13 09:21:13;;;;;;;83.30;34.10;;;8.40;99.90;;;;;;7373297;19;20014;-64
2023/12/13 09:23:40;;;;;;;72.63;33.38;;;8.50;99.90;;;;;;7377244;19;20023;-62
2023/12/13 09:26:13;;;;;;;81.07;33.72;;;8.50;99.90;;;;;;7376018;19;20623;-62
2023/12/13 09:28:44;;;;;;;71.93;31.48;;;8.60;99.90;;;;;;7378161;19;20715;-62
2023/12/13 09:31:11;;;;;;;70.68;32.72;;;8.50;99.90;;;;;;7377040;19;20025;-62
2023/12/13 09:33:38;;;;;;;82.10;33.30;;;8.50;99.90;;;;;;7371391;19;20022;-61
2023/12/13 09:36:06;;;;;;;75.75;32.63;;;8.60;99.90;;;;;;7376643;19;20026;-61
2023/12/13 09:38:33;;;;;;;74.43;32.08;;;8.60;99.90;;;;;;7371950;19;20674;-62
2023/12/13 09:40:59;;;;;;;67.57;31.35;;;8.60;99.90;;;;;;7379611;19;20668;-64
2023/12/13 09:43:26;;;;;;;52.83;28.83;;;8.60;99.90;;;;;;7371477;19;20122;-62
2023/12/13 09:45:53;;;;;;;63.15;30.75;;;8.60;99.90;;;;;;7373217;19;21315;-62
2023/12/13 09:48:24;;;;;;;63.95;29.38;;;8.70;99.90;;;;;;7376861;19;20025;-62
2023/12/13 09:50:57;;;;;;;68.70;30.27;;;8.60;99.90;;;;;;7374865;19;20016;-62
2023/12/13 09:53:25;;;;;;;68.78;32.65;;;8.80;99.90;;;;;;7375139;19;20011;-62
2023/12/13 09:55:54;;;;;;;68.00;29.63;;;8.70;99.90;;;;;;7375638;19;20018;-62
2023/12/13 09:58:20;;;;;;;65.97;30.95;;;8.80;99.90;;;;;;7381354;19;20015;-66
2023/12/13 10:00:47;;;;;;;63.60;30.42;;;8.90;99.90;;;;;;7382059;19;20007;-65
2023/12/13 10:03:14;;;;;;;67.25;32.03;;;8.80;99.90;;;;;;7381440;19;20010;-66
2023/12/13 10:05:47;;;;;;;58.28;29.58;;;8.80;99.90;;;;;;7383763;19;20027;-66
2023/12/13 10:08:14;;;;;;;61.95;30.45;;;8.90;99.90;;;;;;7390417;19;20042;-66
2023/12/13 10:10:47;;;;;;;69.72;32.30;;;8.90;99.90;;;;;;7387407;19;20030;-65
2023/12/13 10:13:14;;;;;;;57.75;30.73;;;8.90;99.90;;;;;;7378838;19;20703;-67
2023/12/13 10:15:40;;;;;;;61.00;30.73;;;9.00;99.90;;;;;;7378873;19;20039;-67
2023/12/13 10:18:07;;;;;;;61.08;31.90;;;8.90;99.90;;;;;;7378880;19;20074;-66
2023/12/13 10:20:34;;;;;;;67.53;30.52;;;9.00;99.90;;;;;;7379094;19;20037;-67
2023/12/13 10:23:01;;;;;;;57.40;30.20;;;8.90;99.90;;;;;;7379415;19;20014;-67
2023/12/13 10:25:29;;;;;;;56.53;30.70;;;9.00;99.90;;;;;;7375255;19;20018;-67
2023/12/13 10:27:57;;;;;;;58.78;30.40;;;9.10;99.90;;;;;;7379207;19;20014;-67
2023/12/13 10:30:26;;;;;;;56.17;29.67;;;9.10;99.90;;;;;;7379265;19;20026;-66
2023/12/13 10:32:52;;;;;;;69.13;31.15;;;9.00;99.90;;;;;;7382085;19;20030;-67
2023/12/13 10:35:21;;;;;;;61.90;30.83;;;9.10;99.90;;;;;;7374902;19;20637;-66
2023/12/13 10:37:48;;;;;;;64.05;30.10;;;9.00;99.90;;;;;;7379515;19;20526;-66
2023/12/13 10:40:17;;;;;;;62.08;31.60;;;9.10;99.90;;;;;;7377568;19;20021;-66
2023/12/13 10:42:47;;;;;;;60.80;29.48;;;9.20;99.90;;;;;;7380727;19;20022;-66
2023/12/13 10:45:35;;;;;;;58.75;30.48;;;9.20;99.90;;;;;;7374131;19;20505;-67
2023/12/13 10:48:08;;;;;;;54.47;29.48;;;9.20;99.90;;;;;;7375539;19;20364;-67
2023/12/13 10:50:38;;;;;;;58.90;30.63;;;9.20;99.90;;;;;;7380827;19;20074;-67
2023/12/13 10:53:07;;;;;;;55.25;29.35;;;9.20;99.90;;;;;;7375500;19;20358;-62
2023/12/13 10:55:33;;;;;;;58.10;29.77;;;9.10;99.90;;;;;;7371054;19;20882;-62
2023/12/13 10:58:01;;;;;;;53.42;28.73;;;9.10;99.90;;;;;;7371373;19;20022;-68
2023/12/13 11:00:27;;;;;;;52.63;27.70;;;9.10;99.90;;;;;;7374120;19;20025;-68
2023/12/13 11:03:02;;;;;;;49.60;28.17;;;9.10;99.90;;;;;;7377901;19;20082;-69
2023/12/13 11:05:28;;;;;;;55.60;29.65;;;9.10;99.90;;;;;;7376464;19;20420;-69
2023/12/13 11:07:55;;;;;;;55.78;29.83;;;9.10;99.90;;;;;;7376126;19;20035;-69
2023/12/13 11:10:22;;;;;;;55.78;29.15;;;9.20;99.90;;;;;;7375725;19;20010;-69
2023/12/13 11:12:52;;;;;;;50.20;27.73;;;9.20;99.90;;;;;;7375988;19;20015;-69
2023/12/13 11:15:19;;;;;;;53.85;28.25;;;9.20;99.90;;;;;;7371688;19;20042;-69
2023/12/13 11:17:58;;;;;;;47.08;27.88;;;9.10;99.90;;;;;;7372746;19;20428;-69
2023/12/13 11:20:26;;;;;;;52.92;27.77;;;9.20;99.90;;;;;;7376720;19;20402;-69
2023/12/13 11:22:55;;;;;;;47.05;28.33;;;9.20;99.90;;;;;;7373748;19;20022;-63
2023/12/13 11:25:34;;;;;;;44.55;26.58;;;9.30;99.90;;;;;;7370815;19;20879;-63
2023/12/13 11:28:00;;;;;;;47.72;28.08;;;9.20;99.90;;;;;;7372556;19;20022;-63
2023/12/13 11:30:26;;;;;;;43.83;25.00;;;9.20;99.90;;;;;;7371915;19;20021;-63
2023/12/13 11:32:52;;;;;;;48.58;27.60;;;9.30;99.90;;;;;;7373877;19;20030;-63
2023/12/13 11:35:20;;;;;;;47.20;26.90;;;9.20;99.90;;;;;;7376185;19;20043;-64
2023/12/13 11:37:54;;;;;;;49.22;26.67;;;9.20;99.90;;;;;;7370571;19;20736;-62
2023/12/13 11:40:21;;;;;;;42.28;26.02;;;9.30;99.90;;;;;;7369330;19;20028;-63
2023/12/13 11:42:49;;;;;;;44.00;27.52;;;9.30;99.90;;;;;;7369051;19;20046;-63
2023/12/13 11:45:21;;;;;;;43.45;25.58;;;9.30;99.90;;;;;;7369529;19;20019;-63
2023/12/13 11:47:49;;;;;;;46.47;26.88;;;9.40;99.90;;;;;;7368773;19;20115;-63
2023/12/13 11:50:16;;;;;;;45.00;25.30;;;9.40;99.90;;;;;;7370278;19;20534;-63
2023/12/13 11:52:44;;;;;;;48.38;26.13;;;9.40;99.90;;;;;;7370954;19;20386;-63
2023/12/13 11:55:10;;;;;;;40.78;25.92;;;9.40;99.90;;;;;;7371761;19;20030;-63
2023/12/13 11:57:38;;;;;;;40.35;24.58;;;9.50;99.90;;;;;;7366642;19;20018;-63
2023/12/13 12:00:05;;;;;;;41.45;26.83;;;9.50;99.90;;;;;;7370853;19;20093;-63
2023/12/13 12:02:59;;;;;;;44.42;25.30;;;9.60;99.90;;;;;;7369974;19;20018;-63
2023/12/13 12:05:27;;;;;;;36.35;25.58;;;9.60;99.90;;;;;;7368320;19;20028;-63
2023/12/13 12:08:05;;;;;;;38.72;24.48;;;9.60;99.90;;;;;;7370505;19;20037;-63
2023/12/13 12:10:32;;;;;;;40.08;25.55;;;9.70;99.90;;;;;;7370554;19;20015;-63
2023/12/13 12:13:03;;;;;;;42.17;25.90;;;9.60;99.90;;;;;;7369637;19;20039;-63
2023/12/13 12:15:31;;;;;;;40.60;24.75;;;9.60;99.90;;;;;;7370805;19;20051;-63
2023/12/13 12:18:17;;;;;;;37.30;24.02;;;9.60;99.90;;;;;;7371505;19;20024;-63
2023/12/13 12:20:46;;;;;;;38.83;25.40;;;9.60;99.90;;;;;;7369139;19;20054;-63
2023/12/13 12:23:12;;;;;;;42.70;26.05;;;9.60;99.90;;;;;;7370341;19;20022;-63
2023/12/13 12:25:42;;;;;;;41.13;23.42;;;9.60;99.90;;;;;;7363478;19;20023;-63
2023/12/13 12:28:10;;;;;;;38.35;23.98;;;9.60;99.90;;;;;;7370499;19;20018;-63
2023/12/13 12:30:42;;;;;;;42.38;24.48;;;9.60;99.90;;;;;;7369203;19;20018;-63
2023/12/13 12:33:09;;;;;;;42.70;24.25;;;9.60;99.90;;;;;;7371623;19;20457;-63
2023/12/13 12:35:35;;;;;;;41.17;24.38;;;9.60;99.90;;;;;;7368603;19;20061;-70
2023/12/13 12:38:04;;;;;;;38.42;24.40;;;9.60;99.90;;;;;;7365581;19;20060;-69